Stockdale, Pennsylvania
Current Conditions -  °F | °C
As of 1:56 PM on Tuesday 27 Jan 2015 (Local Time) from KAGC Reporting Station
Light Snow Light Snow  
Wind Chill: 10°   Ceiling: 2100
Heat Index: 21°   Visibility: 0.75mi
Dew Point: 14°   Wind: 10mph
Humidity: 74%   Direction: 320°NW
Pressure: 29.91"   Gusts: 17mph
Location:  40.08°N, 79.85°W
Report Text: KAGC 271856Z 32009G15KT 3/4SM R28/5000VP6000FT -SN OVC021 M06/M10 A2991 RMK AO2 P0000 T10611100
Loading
Personal Weather Stations






























Interactive Weather Map New forecast layout! Learn more

10-Day Weather Forecast

Advertisements
Track Severe Weather on mobile